Point Reyes Station, California
Current Conditions -  °F | °C
As of 4:15 AM on Monday 20 Oct 2014 (Local Time) from KDVO Reporting Station
Overcast Overcast  
Wind Chill: 61°   Ceiling: 2600
Heat Index: 61°   Visibility: NA
Dew Point: 57°   Wind: 3mph
Humidity: 88%   Direction: 180°S
Pressure: 29.91"   Gusts: NA
Location:  38.07°N, 122.81°W
Report Text: KDVO 201115Z AUTO 18003KT BKN026 OVC030 16/14 A2991 RMK AO2
Loading
Personal Weather Stations






























Interactive Weather Map New forecast layout! Learn more

10-Day Weather Forecast

Advertisements
Track Severe Weather on mobile